NYSE:MSGN

MSG Networks Institutional Ownership

$14.17
0.00 (0.00 %)
(As of 07/9/2021)
Add
Compare
Today's Range
$14.17
$14.17
50-Day Range
$14.17
$15.98
52-Week Range
$8.57
$20.90
VolumeN/A
Average Volume557,605 shs
Market Capitalization$803.59 million
P/E Ratio4.60
Dividend YieldN/A
Beta1.15

Institutional Ownership Changes (13F Filings) for MSG Networks (NYSE:MSGN)

Institutional Ownership Percentage: 74.25%

Institutional Buying and Selling by Quarter


MSG Networks (NYSE MSGN) Institutional Buying and Selling

Reporting DateHedge FundShares HeldMarket Value% of PortfolioQuarterly Change in SharesOwnership in Company
8/2/2021Pinnacle Associates Ltd.55,077$0.80M0.0%+107.4%0.097%
8/1/2021Exchange Traded Concepts LLC15,911$0.23M0.0%+57.6%0.028%
7/31/2021Fisher Asset Management LLC22,588$0.33M0.0%N/A0.040%
7/31/2021Versor Investments LP21,548$0.31M0.0%-18.8%0.038%
7/23/2021Veracity Capital LLC17,555$0.26M0.1%N/A0.031%
5/28/2021Schroder Investment Management Group153,662$2.31M0.0%+5.2%0.271%
5/24/2021Principal Financial Group Inc.43,822$0.66M0.0%+8.8%0.077%
5/19/2021Cypress Capital LLC38,826$0.58M0.2%+2.3%0.068%
5/18/2021Millennium Management LLC19,662$0.30M0.0%-40.6%0.035%
5/18/2021D. E. Shaw & Co. Inc.188,024$2.83M0.0%+89.2%0.332%
5/18/2021Caxton Associates LP50,860$0.77M0.1%+141.1%0.090%
5/18/2021Morgan Stanley324,024$4.87M0.0%+25.8%0.571%
5/18/2021Cubist Systematic Strategies LLC25,881$0.39M0.0%-30.9%0.046%
5/18/2021FORA Capital LLC6,608$99K0.0%N/A0.012%
5/18/2021Gotham Asset Management LLC26,208$0.39M0.0%-47.0%0.046%
5/17/2021PDT Partners LLC78,900$1.19M0.1%-12.0%0.139%
5/17/2021Point72 Hong Kong Ltd6,283$94K0.0%N/A0.011%
5/17/2021CNH Partners LLC244,703$3.68M0.1%N/A0.431%
5/17/2021AQR Capital Management LLC57,392$0.86M0.0%+63.1%0.101%
5/17/2021Royal Bank of Canada42,301$0.64M0.0%+3.3%0.075%
5/17/2021Price T Rowe Associates Inc. MD36,526$0.55M0.0%+114.3%0.064%
5/17/2021Ameriprise Financial Inc.96,182$1.45M0.0%-20.4%0.170%
5/17/2021Nuveen Asset Management LLC188,070$2.83M0.0%-2.7%0.332%
5/17/2021Goldman Sachs Group Inc.152,305$2.29M0.0%-43.9%0.269%
5/14/2021Gamco Investors INC. ET AL1,631,983$24.55M0.2%-3.0%2.878%
5/14/2021Gabelli Funds LLC1,259,750$18.95M0.1%-2.0%2.221%
5/14/2021Arrowstreet Capital Limited Partnership456,901$6.87M0.0%-24.0%0.806%
5/14/2021Dimensional Fund Advisors LP1,318,471$19.83M0.0%-4.8%2.325%
5/14/2021Credit Suisse AG65,838$0.99M0.0%+8.0%0.116%
5/14/2021O Shaughnessy Asset Management LLC10,248$0.15M0.0%+15.8%0.018%
5/13/2021Clearbridge Investments LLC2,920,827$43.93M0.0%0.0%5.150%
5/13/2021Barclays PLC50,667$0.76M0.0%+115.2%0.089%
5/13/2021Renaissance Technologies LLC360,121$5.42M0.0%+381.4%0.635%
5/13/2021Bank of New York Mellon Corp1,393,590$20.96M0.0%-2.9%2.457%
5/13/2021Citigroup Inc.37,848$0.57M0.0%+73.9%0.067%
5/13/2021Federated Hermes Inc.133,327$2.01M0.0%-54.9%0.235%
5/13/2021Bank of Montreal Can388,528$6.22M0.0%-1.9%0.685%
5/13/2021Fairbanks Capital Management Inc.83,846$1.26M1.0%-2.0%0.148%
5/12/2021Northern Trust Corp440,850$6.63M0.0%-5.6%0.777%
5/12/2021Ergoteles LLC39,594$0.60M0.0%-41.3%0.070%
5/12/2021Geode Capital Management LLC623,437$9.38M0.0%-3.0%1.099%
5/12/2021Pinnacle Associates Ltd.26,550$0.40M0.0%+29.2%0.047%
5/12/2021Commonwealth of Pennsylvania Public School Empls Retrmt SYS50,000$0.75M0.0%N/A0.088%
5/12/2021Pinnacle Holdings LLC8,852$0.13M0.1%N/A0.016%
5/12/2021JPMorgan Chase & Co.334,568$5.03M0.0%+158.7%0.590%
5/12/2021Sei Investments Co.57,015$0.85M0.0%-21.6%0.101%
5/12/2021Brinker Capital Investments LLC42,826$0.64M0.0%N/A0.076%
5/12/2021UBS Group AG19,807$0.30M0.0%+41.1%0.035%
5/11/2021Acadian Asset Management LLC3,057$46K0.0%-81.3%0.005%
5/11/2021Horizon Kinetics Asset Management LLC91,288$1.37M0.0%+40.7%0.161%
5/11/2021New York State Common Retirement Fund107,300$1.61M0.0%-6.4%0.189%
5/10/2021Russell Investments Group Ltd.196,200$2.95M0.0%+419.3%0.346%
5/10/2021Systematic Financial Management LP1,052,588$15.83M0.6%-24.8%1.856%
5/10/2021State Board of Administration of Florida Retirement System53,333$0.80M0.0%+100.1%0.094%
5/10/2021Principal Financial Group Inc.43,822$0.66M0.0%+8.8%0.077%
5/10/2021Versor Investments LP26,524$0.40M0.0%N/A0.047%
5/7/2021BlackRock Inc.2,719,922$40.91M0.0%-4.4%4.796%
5/7/2021BNP Paribas Arbitrage SA14,326$0.22M0.0%+45.1%0.025%
5/7/2021Alberta Investment Management Corp2,172,706$32.68M0.3%+1.6%3.831%
5/7/2021Swiss National Bank89,400$1.35M0.0%+1.6%0.158%
5/7/2021Contrarius Investment Management Ltd3,242,307$48.76M2.8%-18.4%5.717%
5/7/2021The PNC Financial Services Group Inc.16,731$0.25M0.0%-27.1%0.030%
5/6/2021Blueshift Asset Management LLC17,071$0.26M0.0%N/A0.030%
5/6/2021Rhumbline Advisers72,003$1.08M0.0%-9.5%0.127%
5/6/2021Alliancebernstein L.P.45,700$0.69M0.0%-20.7%0.081%
5/4/2021Harvest Management LLC13,252$0.20M0.1%N/A0.023%
5/4/2021Victory Capital Management Inc.106,756$1.61M0.0%+72.4%0.188%
5/4/2021Boyar Asset Management Inc.131,028$1.97M1.3%-1.4%0.231%
5/3/2021The Manufacturers Life Insurance Company16,237$0.24M0.0%-10.5%0.029%
5/3/2021Hussman Strategic Advisors Inc.72,000$1.08M0.2%N/A0.127%
4/30/2021LSV Asset Management719,700$10.82M0.0%+19.8%1.269%
4/28/2021Meeder Asset Management Inc.7,736$0.12M0.0%N/A0.014%
4/27/2021Janney Montgomery Scott LLC10,234$0.15M0.0%-75.9%0.018%
4/23/2021Robeco Institutional Asset Management B.V.150,938$2.27M0.0%-16.4%0.266%
4/22/2021New York State Teachers Retirement System2,500$38K0.0%-26.5%0.004%
4/20/2021Exchange Traded Concepts LLC10,098$0.15M0.0%N/A0.018%
4/13/2021Prairiewood Capital LLC86,572$1.30M1.2%+1.7%0.153%
4/12/2021Valeo Financial Advisors LLC2,158$32K0.0%+736.4%0.004%
3/8/2021Dimensional Fund Advisors LP1,385,270$20.42M0.0%-8.1%2.443%
3/2/2021Norges Bank141,130$2.08M0.0%N/A0.249%
2/25/2021Dimensional Fund Advisors LP1,385,270$20.42M0.0%-8.1%2.443%
2/23/2021Principal Financial Group Inc.40,280$0.59M0.0%-41.3%0.071%
2/19/2021JPMorgan Chase & Co.129,340$1.91M0.0%-19.7%0.228%
2/16/2021Squarepoint Ops LLC24,677$0.36M0.0%N/A0.044%
2/16/2021Cypress Capital LLC37,969$0.56M0.3%-4.6%0.067%
2/16/2021Morgan Stanley257,486$3.80M0.0%-56.8%0.454%
2/16/2021Nuveen Asset Management LLC193,296$2.85M0.0%-6.9%0.341%
2/16/2021Price T Rowe Associates Inc. MD17,045$0.25M0.0%-31.6%0.030%
2/16/2021Schroder Investment Management Group146,018$2.15M0.0%+2,217.7%0.257%
2/13/2021American International Group Inc.17,581$0.26M0.0%-26.2%0.031%
2/12/2021Federated Hermes Inc.295,628$4.36M0.0%-14.4%0.521%
2/12/2021The Manufacturers Life Insurance Company18,137$0.27M0.0%-20.2%0.032%
2/12/2021Credit Suisse AG60,972$0.90M0.0%+18.9%0.108%
2/12/2021Ariel Investments LLC10,133,713$149.37M1.7%+1.6%17.869%
2/11/2021Barrow Hanley Mewhinney & Strauss LLC7,410$0.11M0.0%-62.2%0.013%
2/11/2021Northern Trust Corp467,151$6.89M0.0%-18.4%0.824%
2/11/2021Barclays PLC23,548$0.35M0.0%-9.8%0.042%
2/11/2021Citigroup Inc.21,770$0.32M0.0%+23.5%0.038%
2/10/2021HighTower Advisors LLC14,054$0.21M0.0%-25.4%0.025%
2/10/2021Boyar Asset Management Inc.132,848$1.96M1.5%-11.3%0.234%
(Data available from 1/1/2016 forward)

This page was last updated on 8/2/2021 by MarketBeat.com Staff
MarketBeat - Stock Market News and Research Tools logo

MarketBeat empowers individual investors to make better trading decisions by providing real-time financial data and objective market analysis. Whether you’re looking for analyst ratings, corporate buybacks, dividends, earnings, economic reports, financials, insider trades, IPOs, SEC filings or stock splits, MarketBeat has the objective information you need to analyze any stock. Learn more about MarketBeat.

MarketBeat is accredited by the Better Business Bureau

© American Consumer News, LLC dba MarketBeat® 2010-2021. All rights reserved.
326 E 8th St #105, Sioux Falls, SD 57103 | U.S. Based Support Team at [email protected] | (844) 978-6257
MarketBeat does not provide personalized financial advice and does not issue recommendations or offers to buy stock or sell any security.

Our Accessibility Statement | Terms of Service | Do Not Sell My Information

© 2021 Market data provided is at least 10-minutes delayed and hosted by Barchart Solutions. Information is provided 'as-is' and solely for informational purposes, not for trading purposes or advice, and is delayed. To see all exchange delays and terms of use please see disclaimer. Fundamental company data provided by Zacks Investment Research.